Time;durP1;ratioP1;P1;durP2;ratioP2;P2;SDS_P1;SDS_P2;PMS_P1;PMS_P2;Temp;Humidity;BMP_temperature;BMP_pressure;BME280_temperature;BME280_humidity;BME280_pressure;Samples;Min_cycle;Max_cycle;Signal;HPM_P1;HPM_P2
2022/11/01 00:10:43;;;;;;;10.77;5.15;;;13.00;99.90;;;;;;6326677;22;20023;-92
2022/11/01 00:13:09;;;;;;;10.77;5.40;;;13.10;99.90;;;;;;6287249;22;20087;-94
2022/11/01 00:15:34;;;;;;;10.23;4.23;;;13.10;99.90;;;;;;6287083;22;20019;-92
2022/11/01 00:18:00;;;;;;;9.07;5.13;;;13.10;99.90;;;;;;6261722;22;20097;-92
2022/11/01 00:20:47;;;;;;;9.85;5.35;;;13.10;99.90;;;;;;6287712;22;20017;-93
2022/11/01 00:23:32;;;;;;;13.88;5.20;;;13.10;99.90;;;;;;6264956;22;20015;-94
2022/11/01 00:25:59;;;;;;;11.40;5.40;;;13.10;99.90;;;;;;6287764;22;20447;-93
2022/11/01 00:28:26;;;;;;;9.30;4.80;;;13.10;99.90;;;;;;6262293;22;20011;-93
2022/11/01 00:30:53;;;;;;;10.13;4.55;;;13.10;99.90;;;;;;6313014;22;20136;-95
2022/11/01 00:33:18;;;;;;;9.20;4.53;;;13.10;99.90;;;;;;6286757;22;20470;-94
2022/11/01 00:35:45;;;;;;;8.73;4.68;;;13.10;99.90;;;;;;6286760;22;20027;-92
2022/11/01 00:38:12;;;;;;;8.98;4.85;;;13.10;99.90;;;;;;6286993;22;20123;-92
2022/11/01 00:40:38;;;;;;;10.07;4.68;;;13.10;99.90;;;;;;6261211;22;20050;-95
2022/11/01 00:43:04;;;;;;;10.15;5.10;;;13.10;99.90;;;;;;6286848;22;20340;-92
2022/11/01 00:45:30;;;;;;;12.40;5.60;;;13.10;99.90;;;;;;6286677;22;20018;-91
2022/11/01 00:47:56;;;;;;;12.93;5.10;;;13.10;99.90;;;;;;6286796;22;20022;-94
2022/11/01 00:50:21;;;;;;;10.23;4.95;;;13.20;99.90;;;;;;6312587;22;20011;-94
2022/11/01 00:52:47;;;;;;;10.43;4.57;;;13.20;99.90;;;;;;6261176;22;20064;-92
2022/11/01 00:55:13;;;;;;;14.63;4.70;;;13.20;99.90;;;;;;6286757;22;20269;-92
2022/11/01 00:57:39;;;;;;;11.68;4.93;;;13.20;99.90;;;;;;6286592;22;20011;-93
2022/11/01 01:00:05;;;;;;;11.07;5.00;;;13.20;99.90;;;;;;6286625;22;20455;-92
2022/11/01 01:02:31;;;;;;;10.60;4.55;;;13.20;99.90;;;;;;6237078;22;20450;-92
2022/11/01 01:04:57;;;;;;;10.83;4.93;;;13.20;99.90;;;;;;6299547;22;20033;-88
2022/11/01 01:07:22;;;;;;;9.20;4.47;;;13.20;99.90;;;;;;6313153;22;20014;-94
2022/11/01 01:09:48;;;;;;;9.20;4.40;;;13.20;99.90;;;;;;6300415;22;20050;-95
2022/11/01 01:12:14;;;;;;;10.55;4.43;;;13.20;99.90;;;;;;6286785;22;20022;-91
2022/11/01 01:14:40;;;;;;;10.07;4.50;;;13.20;99.90;;;;;;6261078;22;20018;-94
2022/11/01 01:17:05;;;;;;;10.13;4.60;;;13.30;99.90;;;;;;6235815;22;20280;-94
2022/11/01 01:19:31;;;;;;;10.07;4.30;;;13.30;99.90;;;;;;6260887;22;20015;-91
2022/11/01 01:21:57;;;;;;;7.93;4.27;;;13.30;99.90;;;;;;6286595;22;20035;-95
2022/11/01 01:24:25;;;;;;;8.40;4.15;;;13.30;99.90;;;;;;6312936;22;20238;-94
2022/11/01 01:26:51;;;;;;;12.88;4.72;;;13.40;99.90;;;;;;6286843;22;20046;-95
2022/11/01 01:29:17;;;;;;;10.87;4.30;;;13.40;99.90;;;;;;6286452;22;20046;-93
2022/11/01 01:31:42;;;;;;;10.43;4.63;;;13.40;99.90;;;;;;6261345;22;20006;-91
2022/11/01 01:34:08;;;;;;;8.50;4.20;;;13.40;99.90;;;;;;6235473;22;20087;-93
2022/11/01 01:36:34;;;;;;;8.30;4.27;;;13.40;99.90;;;;;;6235841;22;20104;-92
2022/11/01 01:39:00;;;;;;;9.13;4.10;;;13.40;99.90;;;;;;6286684;22;20015;-92
2022/11/01 01:44:45;;;;;;;9.18;3.70;;;13.40;99.90;;;;;;6306599;22;20023;-92
2022/11/01 01:47:16;;;;;;;8.30;4.50;;;13.50;99.90;;;;;;6261118;22;20018;-92
2022/11/01 01:49:43;;;;;;;9.35;4.00;;;13.40;99.90;;;;;;6286317;22;20076;-94
2022/11/01 01:52:09;;;;;;;9.05;4.32;;;13.50;99.90;;;;;;6286211;22;20053;-92
2022/11/01 01:54:36;;;;;;;7.72;3.72;;;13.50;99.90;;;;;;6311635;22;20019;-91
2022/11/01 01:57:03;;;;;;;9.18;4.15;;;13.50;99.90;;;;;;6260903;22;20015;-92
2022/11/01 01:59:30;;;;;;;10.32;4.18;;;13.50;99.90;;;;;;6260472;22;20019;-95
2022/11/01 02:01:57;;;;;;;7.90;4.57;;;13.50;99.90;;;;;;6285854;22;20439;-92
2022/11/01 02:04:26;;;;;;;9.50;3.80;;;13.50;99.90;;;;;;6286191;22;20448;-92
2022/11/01 02:06:52;;;;;;;10.52;3.70;;;13.60;99.90;;;;;;6285842;22;20015;-95
2022/11/01 02:09:22;;;;;;;9.95;3.97;;;13.50;99.90;;;;;;6286314;22;20019;-92
2022/11/01 02:11:59;;;;;;;9.38;4.45;;;13.60;99.90;;;;;;6164776;23;20055;-91
2022/11/01 02:14:25;;;;;;;8.32;3.95;;;13.60;99.90;;;;;;6185202;23;20095;-91
2022/11/01 02:17:09;;;;;;;10.73;4.13;;;13.60;99.90;;;;;;6210644;23;20056;-93
2022/11/01 02:19:53;;;;;;;9.13;4.30;;;13.60;99.90;;;;;;6186479;23;20020;-91
2022/11/01 02:22:28;;;;;;;8.30;4.07;;;13.60;99.90;;;;;;6186579;23;20453;-90
2022/11/01 02:25:02;;;;;;;9.52;4.18;;;13.70;99.90;;;;;;6186754;23;20025;-92
2022/11/01 02:27:49;;;;;;;12.70;3.33;;;13.60;99.90;;;;;;6186714;23;20027;-95
2022/11/01 02:30:20;;;;;;;8.97;3.50;;;13.60;99.90;;;;;;6186541;23;20039;-92
2022/11/01 02:33:05;;;;;;;6.95;3.70;;;13.70;99.90;;;;;;6186865;23;20032;-93
2022/11/01 02:35:42;;;;;;;8.20;3.85;;;13.60;99.90;;;;;;6186742;23;20017;-94
2022/11/01 02:38:26;;;;;;;9.32;3.90;;;13.60;99.90;;;;;;6186610;23;20036;-96
2022/11/01 02:41:12;;;;;;;9.68;3.70;;;13.60;99.90;;;;;;6186438;23;20024;-95
2022/11/01 02:43:43;;;;;;;6.78;3.53;;;13.70;99.90;;;;;;6211351;23;20013;-94
2022/11/01 02:48:56;;;;;;;7.82;3.55;;;13.70;99.90;;;;;;6211433;22;20021;-92
2022/11/01 02:51:23;;;;;;;10.32;3.63;;;13.70;99.90;;;;;;6186504;23;20095;-92
2022/11/01 02:53:49;;;;;;;8.77;3.63;;;13.70;99.90;;;;;;6186081;23;20341;-92
2022/11/01 02:56:17;;;;;;;8.57;3.90;;;13.70;99.90;;;;;;6186395;23;20028;-92
2022/11/01 05:56:46;;;;;;;5.47;1.60;;;15.00;99.90;;;;;;6227623;22;20032;-92
2022/11/01 05:59:12;;;;;;;4.25;1.30;;;15.10;99.90;;;;;;6261524;22;20014;-95
2022/11/01 06:01:38;;;;;;;2.17;0.90;;;15.10;99.90;;;;;;6262101;22;20052;-95
2022/11/01 06:04:10;;;;;;;4.13;1.25;;;15.10;99.90;;;;;;6285068;22;20018;-96
2022/11/01 06:06:36;;;;;;;4.40;1.00;;;15.10;99.90;;;;;;6284723;22;20022;-95
2022/11/01 06:09:09;;;;;;;1.90;0.77;;;15.10;99.90;;;;;;6285525;22;20015;-94
2022/11/01 06:11:35;;;;;;;4.00;0.70;;;15.10;99.90;;;;;;6286012;22;20246;-95
2022/11/01 06:14:01;;;;;;;2.03;0.77;;;15.10;99.90;;;;;;6286150;22;20380;-90
2022/11/01 06:16:27;;;;;;;2.10;0.70;;;15.10;99.90;;;;;;6285847;22;20061;-90
2022/11/01 06:58:14;;;;;;;0.77;0.28;;;14.50;99.90;;;;;;6338027;22;20023;-93
2022/11/01 08:28:04;;;;;;;3.90;0.57;;;14.40;99.90;;;;;;6202608;22;20028;-93
2022/11/01 08:30:38;;;;;;;1.45;0.30;;;14.40;99.90;;;;;;6162500;23;20020;-89
2022/11/01 08:33:12;;;;;;;1.67;0.35;;;14.40;99.90;;;;;;6164882;23;20012;-92
2022/11/01 08:35:38;;;;;;;4.70;0.80;;;14.50;99.90;;;;;;6164222;22;20024;-87
2022/11/01 08:38:05;;;;;;;1.92;0.40;;;14.50;99.90;;;;;;6188018;23;20044;-92
2022/11/01 08:40:32;;;;;;;3.25;0.35;;;14.50;99.90;;;;;;6164303;22;20028;-94
2022/11/01 08:42:58;;;;;;;3.20;0.52;;;14.50;99.90;;;;;;6203241;22;20050;-95
2022/11/01 08:45:24;;;;;;;5.68;0.80;;;14.50;99.90;;;;;;6113603;23;20020;-94
2022/11/01 08:48:05;;;;;;;4.68;0.60;;;14.50;99.90;;;;;;6162608;23;20430;-92
2022/11/01 08:50:50;;;;;;;1.95;0.50;;;14.60;99.90;;;;;;6161894;22;20012;-91
2022/11/01 08:53:17;;;;;;;5.35;0.98;;;14.60;99.90;;;;;;6162030;23;20021;-91
2022/11/01 08:55:43;;;;;;;5.15;0.43;;;14.50;99.90;;;;;;6162865;22;20020;-92
2022/11/01 08:58:08;;;;;;;9.73;1.33;;;14.50;99.90;;;;;;6162273;23;20044;-90
2022/11/01 09:00:37;;;;;;;4.80;0.87;;;14.50;99.90;;;;;;6167793;23;20016;-95
2022/11/01 09:16:58;;;;;;;2.97;0.65;;;14.50;99.90;;;;;;6211156;23;20029;-92
2022/11/01 09:19:26;;;;;;;5.88;1.00;;;14.50;99.90;;;;;;6184565;22;20028;-90
2022/11/01 09:21:53;;;;;;;5.45;0.80;;;14.50;99.90;;;;;;6180937;23;20019;-91
2022/11/01 09:24:34;;;;;;;5.10;0.50;;;14.60;99.90;;;;;;6163883;23;20521;-95
2022/11/01 09:27:01;;;;;;;4.95;1.00;;;14.70;99.90;;;;;;6139182;23;20156;-90
2022/11/01 09:29:27;;;;;;;3.78;0.80;;;14.70;99.90;;;;;;6162073;23;20388;-92
2022/11/01 09:31:53;;;;;;;5.43;0.98;;;14.80;99.90;;;;;;6162394;22;20095;-93
2022/11/01 09:34:20;;;;;;;;;;;14.80;99.90;;;;;;6162643;23;20036;-94
2022/11/01 09:36:46;;;;;;;4.38;0.75;;;14.80;99.90;;;;;;6162972;23;19923;-91
2022/11/01 09:39:15;;;;;;;;;;;14.90;99.90;;;;;;6137457;23;20023;-90
2022/11/01 09:41:51;;;;;;;12.07;3.13;;;14.90;99.90;;;;;;6161000;23;19927;-92
2022/11/01 09:44:24;;;;;;;21.10;3.38;;;14.90;99.90;;;;;;6161268;23;20056;-94
2022/11/01 09:47:06;;;;;;;13.55;1.40;;;15.00;99.90;;;;;;6160272;23;20046;-93
2022/11/01 09:49:35;;;;;;;13.85;2.60;;;15.00;99.90;;;;;;6161688;23;20021;-90
2022/11/01 09:52:02;;;;;;;6.28;1.40;;;15.00;99.90;;;;;;6160733;23;20070;-93
2022/11/01 09:54:28;;;;;;;5.78;1.00;;;15.00;99.90;;;;;;6135481;23;20511;-90
2022/11/01 09:56:57;;;;;;;11.70;2.25;;;15.10;99.90;;;;;;6159659;23;20017;-94
2022/11/01 09:59:53;;;;;;;7.82;1.25;;;15.10;99.90;;;;;;6161338;23;20030;-92
2022/11/01 10:02:29;;;;;;;6.95;0.70;;;15.10;99.90;;;;;;6160975;23;20071;-94
2022/11/01 10:05:09;;;;;;;6.32;1.38;;;15.10;99.90;;;;;;6161035;23;20024;-91
2022/11/01 10:08:57;;;;;;;5.18;0.77;;;15.20;99.90;;;;;;6160692;22;20061;-93
2022/11/01 10:11:28;;;;;;;7.03;0.80;;;15.20;99.90;;;;;;6182567;23;20052;-91
2022/11/01 10:19:58;;;;;;;4.85;0.70;;;15.30;99.90;;;;;;6221366;22;20025;-94
2022/11/01 10:25:47;;;;;;;13.93;1.30;;;15.30;99.90;;;;;;6117625;23;20032;-93
2022/11/01 10:28:19;;;;;;;5.25;0.77;;;15.30;99.90;;;;;;6161142;23;20066;-94
2022/11/01 10:31:16;;;;;;;4.03;0.63;;;15.30;99.90;;;;;;6160869;23;20013;-91
2022/11/01 10:36:29;;;;;;;5.97;1.05;;;15.40;99.90;;;;;;6212264;22;20032;-94
2022/11/01 10:39:34;;;;;;;3.95;1.30;;;15.40;99.90;;;;;;6186063;23;20021;-92
2022/11/01 10:42:11;;;;;;;3.70;0.57;;;15.50;99.90;;;;;;6180962;23;20023;-92
2022/11/01 12:04:08;;;;;;;6.93;0.65;;;15.50;99.90;;;;;;6195157;22;20358;-95
2022/11/01 12:06:42;;;;;;;4.18;0.93;;;15.50;99.90;;;;;;6156011;22;20056;-90
2022/11/01 12:09:32;;;;;;;2.38;0.57;;;15.60;99.90;;;;;;6156640;23;20021;-92
2022/11/01 12:12:13;;;;;;;6.13;0.85;;;15.60;99.90;;;;;;6130118;23;20020;-91
2022/11/01 12:14:40;;;;;;;2.72;0.63;;;15.60;99.90;;;;;;6130757;23;20100;-91
2022/11/01 12:17:22;;;;;;;2.88;1.13;;;15.60;99.90;;;;;;6130119;23;20024;-94
2022/11/01 12:20:22;;;;;;;4.53;1.20;;;15.70;99.90;;;;;;6131910;23;20100;-92
2022/11/01 12:23:14;;;;;;;3.65;0.45;;;15.70;99.90;;;;;;6132786;23;20028;-93
2022/11/01 12:29:34;;;;;;;2.90;0.50;;;15.80;99.90;;;;;;6159119;23;20021;-92
2022/11/01 12:32:46;;;;;;;3.80;0.70;;;15.80;99.90;;;;;;6131692;23;20021;-91
2022/11/01 12:35:22;;;;;;;3.63;0.70;;;15.80;99.90;;;;;;6131205;23;20021;-93
2022/11/01 12:38:42;;;;;;;3.45;0.55;;;15.70;99.90;;;;;;6131871;23;20070;-92
2022/11/01 12:41:14;;;;;;;4.53;0.45;;;15.80;99.90;;;;;;6154643;23;20451;-90
2022/11/01 12:43:48;;;;;;;2.58;0.50;;;15.80;99.90;;;;;;6134361;23;20045;-90
2022/11/01 12:46:30;;;;;;;5.30;0.70;;;15.80;99.90;;;;;;6145239;23;20432;-90
2022/11/01 12:49:24;;;;;;;3.67;0.70;;;15.80;99.90;;;;;;6132288;23;20017;-90
2022/11/01 12:51:56;;;;;;;3.85;0.52;;;15.80;99.90;;;;;;6149407;23;20446;-91
2022/11/01 12:54:27;;;;;;;2.33;0.70;;;15.80;99.90;;;;;;6126477;23;20020;-92
2022/11/01 12:56:57;;;;;;;3.70;0.50;;;15.80;99.90;;;;;;6156719;23;20021;-92
2022/11/01 12:59:47;;;;;;;4.80;0.57;;;15.80;99.90;;;;;;6108458;23;20386;-91
2022/11/01 13:02:21;;;;;;;4.97;0.95;;;15.80;99.90;;;;;;6155822;22;20021;-93
2022/11/01 13:05:11;;;;;;;2.83;0.50;;;15.90;99.90;;;;;;6140097;23;20021;-91
2022/11/01 13:08:00;;;;;;;3.15;0.75;;;15.90;99.90;;;;;;6161422;23;20020;-92
2022/11/01 13:10:35;;;;;;;1.98;0.47;;;15.90;99.90;;;;;;6161439;23;20390;-92
2022/11/01 13:13:24;;;;;;;2.75;0.52;;;15.90;99.90;;;;;;6161086;23;20027;-91
2022/11/01 13:15:57;;;;;;;7.05;0.50;;;15.90;99.90;;;;;;6185776;22;20021;-91
2022/11/01 13:18:38;;;;;;;2.38;0.45;;;15.90;99.90;;;;;;6185754;23;20017;-92
2022/11/01 13:21:38;;;;;;;5.15;0.70;;;15.90;99.90;;;;;;6186428;23;20024;-91
2022/11/01 13:24:28;;;;;;;3.85;0.50;;;16.00;99.90;;;;;;6185998;23;20043;-92
2022/11/01 13:27:17;;;;;;;3.00;0.50;;;16.00;99.90;;;;;;6184011;23;20082;-94
2022/11/01 13:30:03;;;;;;;3.17;0.80;;;16.10;99.90;;;;;;6183852;23;20476;-93
2022/11/01 13:32:46;;;;;;;4.82;0.50;;;16.10;99.90;;;;;;6186091;23;20086;-90
2022/11/01 13:35:49;;;;;;;2.40;0.50;;;16.10;99.90;;;;;;6184955;23;20016;-92
2022/11/01 13:38:30;;;;;;;3.75;0.85;;;16.20;99.90;;;;;;6182627;23;20012;-91
2022/11/01 13:41:07;;;;;;;2.05;0.30;;;16.20;99.90;;;;;;6185512;23;20017;-91
2022/11/01 13:43:40;;;;;;;2.70;0.40;;;16.20;99.90;;;;;;6185800;23;20044;-91
2022/11/01 13:46:35;;;;;;;2.03;0.45;;;16.20;99.90;;;;;;6186159;23;20527;-95
2022/11/01 13:52:28;;;;;;;2.63;0.50;;;16.20;99.90;;;;;;6210809;22;20032;-90
2022/11/01 13:55:05;;;;;;;2.83;0.50;;;16.20;99.90;;;;;;6185590;23;20019;-93
2022/11/01 13:57:32;;;;;;;3.67;0.50;;;16.20;99.90;;;;;;6210825;23;20020;-93
2022/11/01 14:00:09;;;;;;;3.00;0.80;;;16.20;99.90;;;;;;6210803;23;20461;-92
2022/11/01 15:58:52;;;;;;;4.28;0.50;;;15.00;99.90;;;;;;6236300;22;21149;-96
2022/11/01 16:01:26;;;;;;;1.70;0.30;;;14.90;99.90;;;;;;6321999;22;20019;-93
2022/11/01 16:04:07;;;;;;;3.75;0.52;;;14.90;99.90;;;;;;6272020;22;20256;-94
2022/11/01 16:09:45;;;;;;;3.35;0.30;;;14.80;99.90;;;;;;6321188;22;20025;-92
2022/11/01 16:12:22;;;;;;;3.58;0.65;;;14.90;99.90;;;;;;6181173;23;20515;-92
2022/11/01 16:15:05;;;;;;;1.17;0.55;;;14.90;99.90;;;;;;6145109;23;20388;-91
2022/11/01 16:17:39;;;;;;;3.40;0.35;;;14.90;99.90;;;;;;6182910;22;20005;-91
2022/11/01 16:20:33;;;;;;;2.75;0.45;;;14.90;99.90;;;;;;6187405;23;20476;-91
2022/11/01 16:23:12;;;;;;;2.45;0.43;;;14.90;99.90;;;;;;6170098;23;20056;-90
2022/11/01 16:25:46;;;;;;;1.90;0.30;;;14.90;99.90;;;;;;6169129;23;22185;-91
2022/11/01 16:28:14;;;;;;;2.88;0.40;;;14.90;99.90;;;;;;6172662;23;20025;-92
2022/11/01 16:30:45;;;;;;;2.88;0.28;;;14.90;99.90;;;;;;6166294;23;20048;-92
2022/11/01 16:41:51;;;;;;;2.22;0.40;;;14.80;99.90;;;;;;6204650;23;20028;-94
2022/11/01 16:44:18;;;;;;;1.25;0.52;;;14.80;99.90;;;;;;6142429;23;20024;-92
2022/11/01 16:46:48;;;;;;;1.50;0.28;;;14.80;99.90;;;;;;6191955;23;20020;-91
2022/11/01 16:49:13;;;;;;;;;;;14.70;99.90;;;;;;6165857;23;20020;-91
2022/11/01 17:02:12;;;;;;;1.90;1.10;;;14.60;99.90;;;;;;6212016;23;20017;-95
2022/11/01 17:04:44;;;;;;;41.33;19.90;;;14.60;99.90;;;;;;6165381;23;20020;-91
2022/11/01 17:07:19;;;;;;;412.17;155.63;;;14.50;99.90;;;;;;6193338;23;20016;-92
2022/11/01 17:09:46;;;;;;;23.92;12.70;;;14.50;99.90;;;;;;6173368;23;20016;-94
2022/11/01 17:12:11;;;;;;;;;;;14.40;99.90;;;;;;6146397;23;20034;-94
2022/11/01 17:14:44;;;;;;;22.27;19.95;;;14.40;99.90;;;;;;6166910;23;19916;-92
2022/11/01 17:17:44;;;;;;;5.93;3.28;;;14.40;99.90;;;;;;6192046;23;20017;-91
2022/11/01 17:20:25;;;;;;;5.65;1.85;;;14.40;99.90;;;;;;6163244;23;20020;-93
2022/11/01 17:22:54;;;;;;;4.28;1.33;;;14.30;99.90;;;;;;6191271;22;20099;-92
2022/11/01 17:25:27;;;;;;;3.10;1.00;;;14.30;99.90;;;;;;6167638;23;20048;-92
2022/11/01 19:23:44;;;;;;;3.05;0.80;;;13.70;99.90;;;;;;6223911;22;20024;-90
2022/11/01 19:26:52;;;;;;;2.30;1.02;;;13.70;99.90;;;;;;6162272;23;20069;-91
2022/11/01 19:43:24;;;;;;;1.98;0.28;;;13.70;99.90;;;;;;6208092;22;20030;-90
2022/11/01 19:46:15;;;;;;;0.77;0.20;;;13.70;99.90;;;;;;6283016;22;20019;-90
2022/11/01 19:48:41;;;;;;;2.60;0.40;;;13.70;99.90;;;;;;6256955;22;20019;-90
2022/11/01 19:51:17;;;;;;;3.97;0.60;;;13.70;99.90;;;;;;6282080;22;20007;-91
2022/11/01 19:53:44;;;;;;;0.95;0.30;;;13.70;99.90;;;;;;6283633;22;20094;-90
2022/11/01 19:56:18;;;;;;;1.92;0.25;;;13.70;99.90;;;;;;6282781;22;20062;-89
2022/11/01 19:58:59;;;;;;;3.45;0.50;;;13.70;99.90;;;;;;6282497;22;20061;-90
2022/11/01 20:01:53;;;;;;;1.63;0.40;;;13.80;99.90;;;;;;6284104;22;20390;-93
2022/11/01 20:04:55;;;;;;;1.65;0.38;;;13.80;99.90;;;;;;6282336;22;20057;-94
2022/11/01 20:09:47;;;;;;;2.60;0.40;;;13.80;99.90;;;;;;6338924;22;20440;-89
2022/11/01 20:12:13;;;;;;;2.40;0.30;;;13.90;99.90;;;;;;6285965;22;20514;-91
2022/11/01 20:14:39;;;;;;;2.63;0.43;;;13.90;99.90;;;;;;6236527;22;20014;-93
2022/11/01 20:17:05;;;;;;;3.38;0.63;;;13.90;99.90;;;;;;6312187;22;20098;-89
2022/11/01 20:19:31;;;;;;;1.85;0.40;;;14.00;99.90;;;;;;6286861;22;20007;-88
2022/11/01 20:21:57;;;;;;;3.15;0.57;;;14.00;99.90;;;;;;6261960;22;20464;-93
2022/11/01 20:32:29;;;;;;;3.15;0.60;;;14.10;99.90;;;;;;6285000;22;20021;-93
2022/11/01 22:59:29;;;;;;;3.10;0.50;;;13.80;99.90;;;;;;6233375;22;20027;-96
2022/11/01 23:02:04;;;;;;;4.13;0.47;;;13.80;99.90;;;;;;6262879;22;20023;-93
2022/11/01 23:04:33;;;;;;;2.80;0.38;;;13.80;99.90;;;;;;6288506;22;20022;-95
2022/11/01 23:07:01;;;;;;;2.15;0.40;;;13.80;99.90;;;;;;6288945;22;20053;-93
2022/11/01 23:09:27;;;;;;;2.95;0.65;;;13.80;99.90;;;;;;6263430;22;20338;-95
2022/11/01 23:14:44;;;;;;;1.55;0.35;;;13.80;99.90;;;;;;6322887;22;20019;-96
2022/11/01 23:17:19;;;;;;;4.93;0.50;;;13.70;99.90;;;;;;6290826;22;20094;-96
2022/11/01 23:19:59;;;;;;;2.67;0.60;;;13.70;99.90;;;;;;6290872;22;20015;-96
2022/11/01 23:22:35;;;;;;;4.43;0.50;;;13.70;99.90;;;;;;6288634;22;20050;-94
2022/11/01 23:25:02;;;;;;;1.00;0.30;;;13.70;99.90;;;;;;6264654;22;20011;-96
2022/11/01 23:27:28;;;;;;;2.65;0.40;;;13.70;99.90;;;;;;6291179;22;20030;-95
2022/11/01 23:29:57;;;;;;;1.95;0.40;;;13.70;99.90;;;;;;6289379;22;20010;-95
2022/11/01 23:32:23;;;;;;;2.83;0.47;;;13.70;99.90;;;;;;6289558;22;20014;-95
2022/11/01 23:34:49;;;;;;;3.05;0.45;;;13.60;99.90;;;;;;6289076;22;20014;-95
2022/11/01 23:37:18;;;;;;;2.42;0.43;;;13.60;99.90;;;;;;6292182;22;20069;-92
2022/11/01 23:39:44;;;;;;;2.15;0.40;;;13.60;99.90;;;;;;6290546;22;20015;-96
2022/11/01 23:42:23;;;;;;;2.60;0.52;;;13.60;99.90;;;;;;6290095;22;20015;-96
2022/11/01 23:45:33;;;;;;;1.83;0.35;;;13.60;99.90;;;;;;6293119;22;20049;-94
2022/11/01 23:48:02;;;;;;;3.33;0.68;;;13.60;99.90;;;;;;6298881;22;20055;-91
2022/11/01 23:50:34;;;;;;;3.13;0.43;;;13.50;99.90;;;;;;6288531;22;20432;-92
2022/11/01 23:53:12;;;;;;;1.48;0.63;;;13.50;99.90;;;;;;6300094;22;20070;-95
2022/11/01 23:55:47;;;;;;;3.17;0.57;;;13.50;99.90;;;;;;6287896;22;20019;-95
